<?xml version="1.0" encoding="UTF-8"?>
<gpx xmlns="http://www.topografix.com/GPX/1/1" xmlns:xsi="http://www.w3.org/2001/XMLSchema-instance" version="1.1" xsi:schemaLocation="http://www.topografix.com/GPX/1/1 http://www.topografix.com/GPX/1/1/gpx.xsd">
  <metadata>
    <name>Maumee Bay Creek Triathlon - Mini Aquabike</name>
  </metadata>
  <trk>
    <name>Maumee Bay Creek Triathlon - Mini Aquabike</name>
    <trkseg>
      <trkpt lat="41.684235" lon="-83.379844">
        <ele>175</ele>
        <time>2023-06-18T08:05:00.000Z</time>
      </trkpt>
      <trkpt lat="41.683974" lon="-83.379894">
        <ele>174.999994</ele>
        <time>2023-06-18T08:05:03.000Z</time>
      </trkpt>
      <trkpt lat="41.682579" lon="-83.380228">
        <ele>174.999996</ele>
        <time>2023-06-18T08:05:19.000Z</time>
      </trkpt>
      <trkpt lat="41.682193" lon="-83.380304">
        <ele>174.999994</ele>
        <time>2023-06-18T08:05:23.000Z</time>
      </trkpt>
      <trkpt lat="41.68192" lon="-83.380288">
        <ele>175</ele>
        <time>2023-06-18T08:05:26.000Z</time>
      </trkpt>
      <trkpt lat="41.681664" lon="-83.380236">
        <ele>175.000002</ele>
        <time>2023-06-18T08:05:29.000Z</time>
      </trkpt>
      <trkpt lat="41.68142" lon="-83.380136">
        <ele>174.999997</ele>
        <time>2023-06-18T08:05:32.000Z</time>
      </trkpt>
      <trkpt lat="41.681117" lon="-83.379937">
        <ele>175.000008</ele>
        <time>2023-06-18T08:05:36.000Z</time>
      </trkpt>
      <trkpt lat="41.681065" lon="-83.379888">
        <ele>174.999999</ele>
        <time>2023-06-18T08:05:37.000Z</time>
      </trkpt>
      <trkpt lat="41.680761" lon="-83.379537">
        <ele>175.000004</ele>
        <time>2023-06-18T08:05:41.000Z</time>
      </trkpt>
      <trkpt lat="41.680494" lon="-83.379041">
        <ele>174.999997</ele>
        <time>2023-06-18T08:05:46.000Z</time>
      </trkpt>
      <trkpt lat="41.680355" lon="-83.378673">
        <ele>175.000009</ele>
        <time>2023-06-18T08:05:49.000Z</time>
      </trkpt>
      <trkpt lat="41.680225" lon="-83.378122">
        <ele>174.999999</ele>
        <time>2023-06-18T08:05:54.000Z</time>
      </trkpt>
      <trkpt lat="41.68008" lon="-83.377435">
        <ele>175.000009</ele>
        <time>2023-06-18T08:06:00.000Z</time>
      </trkpt>
      <trkpt lat="41.67999" lon="-83.377102">
        <ele>174.999998</ele>
        <time>2023-06-18T08:06:03.000Z</time>
      </trkpt>
      <trkpt lat="41.679905" lon="-83.376852">
        <ele>174.999998</ele>
        <time>2023-06-18T08:06:05.000Z</time>
      </trkpt>
      <trkpt lat="41.679779" lon="-83.376511">
        <ele>174.999997</ele>
        <time>2023-06-18T08:06:08.000Z</time>
      </trkpt>
      <trkpt lat="41.679608" lon="-83.376213">
        <ele>174.999994</ele>
        <time>2023-06-18T08:06:11.000Z</time>
      </trkpt>
      <trkpt lat="41.679404" lon="-83.375965">
        <ele>174.999999</ele>
        <time>2023-06-18T08:06:14.000Z</time>
      </trkpt>
      <trkpt lat="41.678888" lon="-83.375451">
        <ele>175.000002</ele>
        <time>2023-06-18T08:06:21.000Z</time>
      </trkpt>
      <trkpt lat="41.678623" lon="-83.375078">
        <ele>175.000002</ele>
        <time>2023-06-18T08:06:25.000Z</time>
      </trkpt>
      <trkpt lat="41.678412" lon="-83.374712">
        <ele>174.999997</ele>
        <time>2023-06-18T08:06:29.000Z</time>
      </trkpt>
      <trkpt lat="41.678271" lon="-83.374436">
        <ele>174.999995</ele>
        <time>2023-06-18T08:06:32.000Z</time>
      </trkpt>
      <trkpt lat="41.678059" lon="-83.373796">
        <ele>175.000001</ele>
        <time>2023-06-18T08:06:38.000Z</time>
      </trkpt>
      <trkpt lat="41.677937" lon="-83.373346">
        <ele>174.999992</ele>
        <time>2023-06-18T08:06:42.000Z</time>
      </trkpt>
      <trkpt lat="41.677863" lon="-83.372632">
        <ele>175.000003</ele>
        <time>2023-06-18T08:06:48.000Z</time>
      </trkpt>
      <trkpt lat="41.677871" lon="-83.372056">
        <ele>174.999675</ele>
        <time>2023-06-18T08:06:53.000Z</time>
      </trkpt>
      <trkpt lat="41.677905" lon="-83.371325">
        <ele>174.99903</ele>
        <time>2023-06-18T08:06:59.000Z</time>
      </trkpt>
      <trkpt lat="41.677895" lon="-83.37115">
        <ele>174.998872</ele>
        <time>2023-06-18T08:07:00.000Z</time>
      </trkpt>
      <trkpt lat="41.677839" lon="-83.370901">
        <ele>174.998643</ele>
        <time>2023-06-18T08:07:02.000Z</time>
      </trkpt>
      <trkpt lat="41.677682" lon="-83.370535">
        <ele>174.998274</ele>
        <time>2023-06-18T08:07:06.000Z</time>
      </trkpt>
      <trkpt lat="41.677582" lon="-83.370406">
        <ele>174.998108</ele>
        <time>2023-06-18T08:07:08.000Z</time>
      </trkpt>
      <trkpt lat="41.6774" lon="-83.370166">
        <ele>174.990428</ele>
        <time>2023-06-18T08:07:11.000Z</time>
      </trkpt>
      <trkpt lat="41.67727" lon="-83.370079">
        <ele>174.972833</ele>
        <time>2023-06-18T08:07:13.000Z</time>
      </trkpt>
      <trkpt lat="41.677078" lon="-83.369989">
        <ele>174.94571</ele>
        <time>2023-06-18T08:07:15.000Z</time>
      </trkpt>
      <trkpt lat="41.676778" lon="-83.369928">
        <ele>174.908604</ele>
        <time>2023-06-18T08:07:18.000Z</time>
      </trkpt>
      <trkpt lat="41.676317" lon="-83.369976">
        <ele>174.849757</ele>
        <time>2023-06-18T08:07:23.000Z</time>
      </trkpt>
      <trkpt lat="41.676008" lon="-83.37006">
        <ele>174.81077</ele>
        <time>2023-06-18T08:07:27.000Z</time>
      </trkpt>
      <trkpt lat="41.675663" lon="-83.370217">
        <ele>174.772228</ele>
        <time>2023-06-18T08:07:31.000Z</time>
      </trkpt>
      <trkpt lat="41.675268" lon="-83.370523">
        <ele>174.775208</ele>
        <time>2023-06-18T08:07:36.000Z</time>
      </trkpt>
      <trkpt lat="41.675072" lon="-83.370696">
        <ele>174.77669</ele>
        <time>2023-06-18T08:07:39.000Z</time>
      </trkpt>
      <trkpt lat="41.674947" lon="-83.370738">
        <ele>174.777548</ele>
        <time>2023-06-18T08:07:40.000Z</time>
      </trkpt>
      <trkpt lat="41.674794" lon="-83.370759">
        <ele>174.778582</ele>
        <time>2023-06-18T08:07:42.000Z</time>
      </trkpt>
      <trkpt lat="41.674701" lon="-83.370699">
        <ele>174.779157</ele>
        <time>2023-06-18T08:07:43.000Z</time>
      </trkpt>
      <trkpt lat="41.674703" lon="-83.370963">
        <ele>174.780385</ele>
        <time>2023-06-18T08:07:45.000Z</time>
      </trkpt>
      <trkpt lat="41.674707" lon="-83.371167">
        <ele>174.781377</ele>
        <time>2023-06-18T08:07:47.000Z</time>
      </trkpt>
      <trkpt lat="41.674713" lon="-83.371517">
        <ele>174.783125</ele>
        <time>2023-06-18T08:07:50.000Z</time>
      </trkpt>
      <trkpt lat="41.6747" lon="-83.371574">
        <ele>174.783388</ele>
        <time>2023-06-18T08:07:50.000Z</time>
      </trkpt>
      <trkpt lat="41.674715" lon="-83.373669">
        <ele>175.301784</ele>
        <time>2023-06-18T08:08:07.000Z</time>
      </trkpt>
      <trkpt lat="41.674695" lon="-83.375537">
        <ele>175.703777</ele>
        <time>2023-06-18T08:08:23.000Z</time>
      </trkpt>
      <trkpt lat="41.674689" lon="-83.377525">
        <ele>175.937649</ele>
        <time>2023-06-18T08:08:40.000Z</time>
      </trkpt>
      <trkpt lat="41.674699" lon="-83.380061">
        <ele>176.000008</ele>
        <time>2023-06-18T08:09:01.000Z</time>
      </trkpt>
      <trkpt lat="41.674652" lon="-83.386616">
        <ele>176.000008</ele>
        <time>2023-06-18T08:09:55.000Z</time>
      </trkpt>
      <trkpt lat="41.674651" lon="-83.387872">
        <ele>176.000002</ele>
        <time>2023-06-18T08:10:05.000Z</time>
      </trkpt>
      <trkpt lat="41.674666" lon="-83.390246">
        <ele>176.000007</ele>
        <time>2023-06-18T08:10:25.000Z</time>
      </trkpt>
      <trkpt lat="41.674631" lon="-83.395387">
        <ele>176.000004</ele>
        <time>2023-06-18T08:11:08.000Z</time>
      </trkpt>
      <trkpt lat="41.674612" lon="-83.396652">
        <ele>175.999998</ele>
        <time>2023-06-18T08:11:19.000Z</time>
      </trkpt>
      <trkpt lat="41.67459" lon="-83.398741">
        <ele>176.007411</ele>
        <time>2023-06-18T08:11:36.000Z</time>
      </trkpt>
      <trkpt lat="41.674592" lon="-83.398982">
        <ele>176.01004</ele>
        <time>2023-06-18T08:11:38.000Z</time>
      </trkpt>
      <trkpt lat="41.674591" lon="-83.399708">
        <ele>176.018507</ele>
        <time>2023-06-18T08:11:44.000Z</time>
      </trkpt>
      <trkpt lat="41.67458" lon="-83.40067">
        <ele>176.04583</ele>
        <time>2023-06-18T08:11:52.000Z</time>
      </trkpt>
      <trkpt lat="41.67458" lon="-83.40231">
        <ele>176.231136</ele>
        <time>2023-06-18T08:12:06.000Z</time>
      </trkpt>
      <trkpt lat="41.674555" lon="-83.405425">
        <ele>176.587747</ele>
        <time>2023-06-18T08:12:32.000Z</time>
      </trkpt>
      <trkpt lat="41.674531" lon="-83.408397">
        <ele>176.27756</ele>
        <time>2023-06-18T08:12:57.000Z</time>
      </trkpt>
      <trkpt lat="41.674517" lon="-83.409655">
        <ele>176.201073</ele>
        <time>2023-06-18T08:13:07.000Z</time>
      </trkpt>
      <trkpt lat="41.674515" lon="-83.409747">
        <ele>176.195276</ele>
        <time>2023-06-18T08:13:08.000Z</time>
      </trkpt>
      <trkpt lat="41.662731" lon="-83.409676">
        <ele>177.99683</ele>
        <time>2023-06-18T08:15:19.000Z</time>
      </trkpt>
      <trkpt lat="41.661573" lon="-83.409672">
        <ele>178.172454</ele>
        <time>2023-06-18T08:15:32.000Z</time>
      </trkpt>
      <trkpt lat="41.660068" lon="-83.409678">
        <ele>178.267824</ele>
        <time>2023-06-18T08:15:49.000Z</time>
      </trkpt>
      <trkpt lat="41.660047" lon="-83.409685">
        <ele>178.270069</ele>
        <time>2023-06-18T08:15:49.000Z</time>
      </trkpt>
      <trkpt lat="41.659953" lon="-83.409689">
        <ele>178.275406</ele>
        <time>2023-06-18T08:15:50.000Z</time>
      </trkpt>
      <trkpt lat="41.659958" lon="-83.409605">
        <ele>178.279849</ele>
        <time>2023-06-18T08:15:51.000Z</time>
      </trkpt>
      <trkpt lat="41.659958" lon="-83.40946">
        <ele>178.276359</ele>
        <time>2023-06-18T08:15:52.000Z</time>
      </trkpt>
      <trkpt lat="41.659958" lon="-83.408873">
        <ele>178.231112</ele>
        <time>2023-06-18T08:15:57.000Z</time>
      </trkpt>
      <trkpt lat="41.659968" lon="-83.408238">
        <ele>178.181873</ele>
        <time>2023-06-18T08:16:02.000Z</time>
      </trkpt>
      <trkpt lat="41.659968" lon="-83.407324">
        <ele>178.112265</ele>
        <time>2023-06-18T08:16:10.000Z</time>
      </trkpt>
      <trkpt lat="41.659968" lon="-83.40687">
        <ele>178.086563</ele>
        <time>2023-06-18T08:16:14.000Z</time>
      </trkpt>
      <trkpt lat="41.659971" lon="-83.406253">
        <ele>178.061734</ele>
        <time>2023-06-18T08:16:19.000Z</time>
      </trkpt>
      <trkpt lat="41.659978" lon="-83.405685">
        <ele>178.038575</ele>
        <time>2023-06-18T08:16:24.000Z</time>
      </trkpt>
      <trkpt lat="41.659978" lon="-83.405177">
        <ele>178.018068</ele>
        <time>2023-06-18T08:16:28.000Z</time>
      </trkpt>
      <trkpt lat="41.659978" lon="-83.403677">
        <ele>177.999997</ele>
        <time>2023-06-18T08:16:40.000Z</time>
      </trkpt>
      <trkpt lat="41.660003" lon="-83.400551">
        <ele>177.924278</ele>
        <time>2023-06-18T08:17:06.000Z</time>
      </trkpt>
      <trkpt lat="41.660001" lon="-83.399128">
        <ele>177.737337</ele>
        <time>2023-06-18T08:17:18.000Z</time>
      </trkpt>
      <trkpt lat="41.660017" lon="-83.397916">
        <ele>177.489233</ele>
        <time>2023-06-18T08:17:28.000Z</time>
      </trkpt>
      <trkpt lat="41.660017" lon="-83.396983">
        <ele>177.371237</ele>
        <time>2023-06-18T08:17:36.000Z</time>
      </trkpt>
      <trkpt lat="41.660021" lon="-83.396401">
        <ele>177.332824</ele>
        <time>2023-06-18T08:17:41.000Z</time>
      </trkpt>
      <trkpt lat="41.660029" lon="-83.393753">
        <ele>177.450072</ele>
        <time>2023-06-18T08:18:03.000Z</time>
      </trkpt>
      <trkpt lat="41.660048" lon="-83.393167">
        <ele>177.538472</ele>
        <time>2023-06-18T08:18:08.000Z</time>
      </trkpt>
      <trkpt lat="41.660048" lon="-83.392328">
        <ele>177.649827</ele>
        <time>2023-06-18T08:18:15.000Z</time>
      </trkpt>
      <trkpt lat="41.660054" lon="-83.391795">
        <ele>177.706752</ele>
        <time>2023-06-18T08:18:19.000Z</time>
      </trkpt>
      <trkpt lat="41.660051" lon="-83.39017">
        <ele>177.860201</ele>
        <time>2023-06-18T08:18:32.000Z</time>
      </trkpt>
      <trkpt lat="41.661477" lon="-83.390171">
        <ele>177.78941</ele>
        <time>2023-06-18T08:18:48.000Z</time>
      </trkpt>
      <trkpt lat="41.665125" lon="-83.390217">
        <ele>177.387345</ele>
        <time>2023-06-18T08:19:29.000Z</time>
      </trkpt>
      <trkpt lat="41.667832" lon="-83.39024">
        <ele>176.407108</ele>
        <time>2023-06-18T08:19:59.000Z</time>
      </trkpt>
      <trkpt lat="41.668107" lon="-83.390223">
        <ele>176.329951</ele>
        <time>2023-06-18T08:20:02.000Z</time>
      </trkpt>
      <trkpt lat="41.669576" lon="-83.390231">
        <ele>176.072353</ele>
        <time>2023-06-18T08:20:18.000Z</time>
      </trkpt>
      <trkpt lat="41.674662" lon="-83.390233">
        <ele>175.999996</ele>
        <time>2023-06-18T08:21:15.000Z</time>
      </trkpt>
      <trkpt lat="41.674646" lon="-83.38787">
        <ele>175.999994</ele>
        <time>2023-06-18T08:21:35.000Z</time>
      </trkpt>
      <trkpt lat="41.674656" lon="-83.386605">
        <ele>175.999995</ele>
        <time>2023-06-18T08:21:46.000Z</time>
      </trkpt>
      <trkpt lat="41.674686" lon="-83.380059">
        <ele>175.999879</ele>
        <time>2023-06-18T08:22:40.000Z</time>
      </trkpt>
      <trkpt lat="41.674685" lon="-83.377523">
        <ele>175.934906</ele>
        <time>2023-06-18T08:23:01.000Z</time>
      </trkpt>
      <trkpt lat="41.674707" lon="-83.375537">
        <ele>175.712169</ele>
        <time>2023-06-18T08:23:17.000Z</time>
      </trkpt>
      <trkpt lat="41.674707" lon="-83.373668">
        <ele>175.298223</ele>
        <time>2023-06-18T08:23:33.000Z</time>
      </trkpt>
      <trkpt lat="41.674706" lon="-83.371582">
        <ele>174.800439</ele>
        <time>2023-06-18T08:23:50.000Z</time>
      </trkpt>
      <trkpt lat="41.674702" lon="-83.37153">
        <ele>174.787779</ele>
        <time>2023-06-18T08:23:50.000Z</time>
      </trkpt>
      <trkpt lat="41.674707" lon="-83.371174">
        <ele>174.756911</ele>
        <time>2023-06-18T08:23:53.000Z</time>
      </trkpt>
      <trkpt lat="41.674716" lon="-83.370971">
        <ele>174.76117</ele>
        <time>2023-06-18T08:23:55.000Z</time>
      </trkpt>
      <trkpt lat="41.674707" lon="-83.370709">
        <ele>174.766499</ele>
        <time>2023-06-18T08:23:57.000Z</time>
      </trkpt>
      <trkpt lat="41.674781" lon="-83.370648">
        <ele>174.768962</ele>
        <time>2023-06-18T08:23:58.000Z</time>
      </trkpt>
      <trkpt lat="41.675052" lon="-83.370588">
        <ele>174.776957</ele>
        <time>2023-06-18T08:24:01.000Z</time>
      </trkpt>
      <trkpt lat="41.675261" lon="-83.370516">
        <ele>174.782832</ele>
        <time>2023-06-18T08:24:03.000Z</time>
      </trkpt>
      <trkpt lat="41.675658" lon="-83.370223">
        <ele>174.795717</ele>
        <time>2023-06-18T08:24:08.000Z</time>
      </trkpt>
      <trkpt lat="41.676003" lon="-83.370066">
        <ele>174.815075</ele>
        <time>2023-06-18T08:24:12.000Z</time>
      </trkpt>
      <trkpt lat="41.676321" lon="-83.369967">
        <ele>174.849053</ele>
        <time>2023-06-18T08:24:16.000Z</time>
      </trkpt>
      <trkpt lat="41.676775" lon="-83.369916">
        <ele>174.900342</ele>
        <time>2023-06-18T08:24:21.000Z</time>
      </trkpt>
      <trkpt lat="41.677073" lon="-83.369981">
        <ele>174.932682</ele>
        <time>2023-06-18T08:24:24.000Z</time>
      </trkpt>
      <trkpt lat="41.677274" lon="-83.370083">
        <ele>174.956322</ele>
        <time>2023-06-18T08:24:26.000Z</time>
      </trkpt>
      <trkpt lat="41.677401" lon="-83.370179">
        <ele>174.971642</ele>
        <time>2023-06-18T08:24:28.000Z</time>
      </trkpt>
      <trkpt lat="41.677589" lon="-83.370393">
        <ele>174.999566</ele>
        <time>2023-06-18T08:24:31.000Z</time>
      </trkpt>
      <trkpt lat="41.677669" lon="-83.370532">
        <ele>175.009452015</ele>
        <time>2023-06-18T08:24:32.000Z</time>
      </trkpt>
      <trkpt lat="41.677838" lon="-83.370902">
        <ele>175.033885365</ele>
        <time>2023-06-18T08:24:36.000Z</time>
      </trkpt>
      <trkpt lat="41.677894" lon="-83.371155">
        <ele>175.04875123</ele>
        <time>2023-06-18T08:24:38.000Z</time>
      </trkpt>
      <trkpt lat="41.677914" lon="-83.37133">
        <ele>175.058724867</ele>
        <time>2023-06-18T08:24:39.000Z</time>
      </trkpt>
      <trkpt lat="41.677867" lon="-83.372052">
        <ele>175.099554036</ele>
        <time>2023-06-18T08:24:45.000Z</time>
      </trkpt>
      <trkpt lat="41.677871" lon="-83.37262">
        <ele>175.131554616</ele>
        <time>2023-06-18T08:24:50.000Z</time>
      </trkpt>
      <trkpt lat="41.677951" lon="-83.373345">
        <ele>175.172841919</ele>
        <time>2023-06-18T08:24:56.000Z</time>
      </trkpt>
      <trkpt lat="41.678066" lon="-83.373792">
        <ele>175.199476365</ele>
        <time>2023-06-18T08:25:00.000Z</time>
      </trkpt>
      <trkpt lat="41.678273" lon="-83.374425">
        <ele>175.238405526</ele>
        <time>2023-06-18T08:25:06.000Z</time>
      </trkpt>
      <trkpt lat="41.678402" lon="-83.374714">
        <ele>175.257372649</ele>
        <time>2023-06-18T08:25:09.000Z</time>
      </trkpt>
      <trkpt lat="41.67861" lon="-83.37508">
        <ele>175.283281821</ele>
        <time>2023-06-18T08:25:13.000Z</time>
      </trkpt>
      <trkpt lat="41.678886" lon="-83.375437">
        <ele>175.312227941</ele>
        <time>2023-06-18T08:25:17.000Z</time>
      </trkpt>
      <trkpt lat="41.679396" lon="-83.375978">
        <ele>175.361306155</ele>
        <time>2023-06-18T08:25:24.000Z</time>
      </trkpt>
      <trkpt lat="41.679615" lon="-83.376228">
        <ele>175.38301373</ele>
        <time>2023-06-18T08:25:27.000Z</time>
      </trkpt>
      <trkpt lat="41.679774" lon="-83.376513">
        <ele>175.403053934</ele>
        <time>2023-06-18T08:25:30.000Z</time>
      </trkpt>
      <trkpt lat="41.679906" lon="-83.37685">
        <ele>175.424491164</ele>
        <time>2023-06-18T08:25:33.000Z</time>
      </trkpt>
      <trkpt lat="41.679979" lon="-83.377092">
        <ele>175.439194132</ele>
        <time>2023-06-18T08:25:35.000Z</time>
      </trkpt>
      <trkpt lat="41.680093" lon="-83.377439">
        <ele>175.460549872</ele>
        <time>2023-06-18T08:25:38.000Z</time>
      </trkpt>
      <trkpt lat="41.680237" lon="-83.378112">
        <ele>175.499988182</ele>
        <time>2023-06-18T08:25:44.000Z</time>
      </trkpt>
      <trkpt lat="41.680355" lon="-83.378667">
        <ele>175.532495969</ele>
        <time>2023-06-18T08:25:49.000Z</time>
      </trkpt>
      <trkpt lat="41.680495" lon="-83.379033">
        <ele>175.555661191</ele>
        <time>2023-06-18T08:25:52.000Z</time>
      </trkpt>
      <trkpt lat="41.680763" lon="-83.379542">
        <ele>175.590744419</ele>
        <time>2023-06-18T08:25:57.000Z</time>
      </trkpt>
      <trkpt lat="41.681062" lon="-83.379892">
        <ele>175.620700827</ele>
        <time>2023-06-18T08:26:01.000Z</time>
      </trkpt>
      <trkpt lat="41.68112" lon="-83.379941">
        <ele>175.625873684</ele>
        <time>2023-06-18T08:26:02.000Z</time>
      </trkpt>
      <trkpt lat="41.681422" lon="-83.380122">
        <ele>175.650830764</ele>
        <time>2023-06-18T08:26:06.000Z</time>
      </trkpt>
      <trkpt lat="41.681659" lon="-83.380233">
        <ele>175.669769192</ele>
        <time>2023-06-18T08:26:09.000Z</time>
      </trkpt>
      <trkpt lat="41.681932" lon="-83.380289">
        <ele>175.690601187</ele>
        <time>2023-06-18T08:26:12.000Z</time>
      </trkpt>
      <trkpt lat="41.682179" lon="-83.380294">
        <ele>175.709233947</ele>
        <time>2023-06-18T08:26:15.000Z</time>
      </trkpt>
      <trkpt lat="41.682575" lon="-83.38022">
        <ele>175.739392784</ele>
        <time>2023-06-18T08:26:19.000Z</time>
      </trkpt>
      <trkpt lat="41.68396" lon="-83.379897">
        <ele>175.845432785</ele>
        <time>2023-06-18T08:26:35.000Z</time>
      </trkpt>
      <trkpt lat="41.684231" lon="-83.379829">
        <ele>175.866229492</ele>
        <time>2023-06-18T08:26:38.000Z</time>
      </trkpt>
    </trkseg>
  </trk>
</gpx>

<!--
Performance optimized by W3 Total Cache. Learn more: https://www.boldgrid.com/w3-total-cache/?utm_source=w3tc&utm_medium=footer_comment&utm_campaign=free_plugin

Page Caching using Disk: Enhanced{w3tc_pagecache_reject_reason} 

Served from: www.aquabike.world @ 2026-05-10 17:34:49 by W3 Total Cache
-->